createdAt,value
2023-01-10T00:01:08.021Z,6.03
2023-01-10T00:03:35.712Z,5.05
2023-01-10T00:06:03.254Z,5.35
2023-01-10T00:08:30.640Z,5.15
2023-01-10T00:10:58.432Z,5.43
2023-01-10T00:13:25.928Z,5.65
2023-01-10T00:15:54.869Z,5.32
2023-01-10T00:18:22.932Z,5.78
2023-01-10T00:20:50.350Z,5.62
2023-01-10T00:23:18.512Z,4.57
2023-01-10T00:25:46.364Z,4.82
2023-01-10T00:28:20.248Z,4.97
2023-01-10T00:30:59.806Z,4.28
2023-01-10T00:33:28.755Z,4.32
2023-01-10T00:35:56.429Z,4.32
2023-01-10T00:38:24.156Z,3.95
2023-01-10T00:40:51.570Z,4.87
2023-01-10T00:43:37.855Z,4.25
2023-01-10T00:46:05.472Z,4.00
2023-01-10T00:48:33.240Z,4.22
2023-01-10T00:51:00.668Z,3.65
2023-01-10T00:53:28.095Z,4.00
2023-01-10T00:55:56.028Z,3.67
2023-01-10T00:58:23.800Z,4.12
2023-01-10T01:00:51.259Z,4.00
2023-01-10T01:03:21.609Z,3.60
2023-01-10T01:05:49.215Z,3.45
2023-01-10T01:08:17.964Z,2.97
2023-01-10T01:10:46.119Z,3.85
2023-01-10T01:13:19.401Z,3.92
2023-01-10T01:15:47.287Z,3.05
2023-01-10T01:18:17.787Z,3.45
2023-01-10T01:20:48.031Z,3.33
2023-01-10T01:23:16.105Z,2.60
2023-01-10T01:25:43.504Z,2.83
2023-01-10T01:28:13.656Z,2.75
2023-01-10T01:30:41.561Z,3.00
2023-01-10T01:33:08.951Z,2.47
2023-01-10T01:35:36.561Z,2.42
2023-01-10T01:38:04.243Z,2.95
2023-01-10T01:40:31.769Z,2.62
2023-01-10T01:42:59.158Z,2.58
2023-01-10T01:45:29.725Z,2.47
2023-01-10T01:47:58.269Z,2.10
2023-01-10T01:50:59.327Z,2.50
2023-01-10T01:53:52.939Z,1.83
2023-01-10T01:56:42.961Z,1.75
2023-01-10T01:59:41.117Z,1.95
2023-01-10T02:02:13.216Z,1.40
2023-01-10T02:04:50.250Z,1.20
2023-01-10T02:07:18.261Z,1.65
2023-01-10T02:09:49.336Z,1.25
2023-01-10T02:12:16.740Z,1.15
2023-01-10T02:14:45.389Z,1.00
2023-01-10T02:17:12.824Z,1.25
2023-01-10T02:20:05.968Z,1.05
2023-01-10T02:22:56.981Z,0.90
2023-01-10T02:25:47.372Z,0.88
2023-01-10T02:28:35.681Z,1.00
2023-01-10T02:31:24.488Z,1.08
2023-01-10T02:34:04.644Z,1.02
2023-01-10T02:36:40.592Z,0.77
2023-01-10T02:39:19.216Z,0.82
2023-01-10T02:42:00.180Z,0.65
2023-01-10T02:44:45.335Z,0.55
2023-01-10T02:47:13.671Z,0.60
2023-01-10T02:49:45.221Z,0.62
2023-01-10T02:52:16.045Z,0.68
2023-01-10T02:54:43.894Z,0.70
2023-01-10T02:57:48.308Z,0.65
2023-01-10T03:00:48.132Z,0.70
2023-01-10T03:03:39.322Z,0.85
2023-01-10T03:06:45.810Z,0.73
2023-01-10T03:09:19.022Z,0.77
2023-01-10T03:11:47.105Z,0.80
2023-01-10T03:14:19.151Z,0.50
2023-01-10T03:16:52.016Z,1.00
2023-01-10T03:19:22.633Z,0.73
2023-01-10T03:21:55.107Z,0.50
2023-01-10T03:24:35.580Z,0.50
2023-01-10T03:27:25.168Z,0.70
2023-01-10T03:30:24.880Z,0.80
2023-01-10T03:32:53.458Z,0.50
2023-01-10T03:35:22.582Z,0.50
2023-01-10T03:37:56.600Z,0.52
2023-01-10T03:40:28.876Z,0.65
2023-01-10T03:43:22.303Z,0.50
2023-01-10T03:45:59.678Z,0.57
2023-01-10T03:48:31.683Z,0.50
2023-01-10T03:51:00.660Z,0.60
2023-01-10T03:53:28.295Z,0.40
2023-01-10T03:55:55.852Z,0.52
2023-01-10T03:58:23.579Z,0.50
2023-01-10T04:00:51.301Z,0.40
2023-01-10T04:03:19.067Z,0.60
2023-01-10T04:05:46.523Z,0.50
2023-01-10T04:08:14.139Z,0.57
2023-01-10T04:10:41.845Z,0.47
2023-01-10T04:13:09.222Z,0.30
2023-01-10T04:15:36.695Z,0.40
2023-01-10T04:18:04.494Z,0.30
2023-01-10T04:20:31.894Z,0.35
2023-01-10T04:22:59.357Z,0.30
2023-01-10T04:25:27.063Z,0.50
2023-01-10T04:27:54.637Z,0.50
2023-01-10T04:30:22.147Z,0.70
2023-01-10T04:32:49.872Z,0.40
2023-01-10T04:35:17.299Z,0.45
2023-01-10T04:37:44.787Z,0.43
2023-01-10T04:40:13.267Z,0.40
2023-01-10T04:42:40.655Z,0.30
2023-01-10T04:45:11.810Z,0.52
2023-01-10T04:47:39.796Z,0.50
2023-01-10T04:50:07.392Z,0.30
2023-01-10T04:52:34.776Z,0.60
2023-01-10T04:55:02.486Z,0.50
2023-01-10T04:57:29.886Z,0.40
2023-01-10T04:59:57.317Z,0.52
2023-01-10T05:02:25.116Z,0.40
2023-01-10T05:04:52.663Z,0.40
2023-01-10T05:07:20.042Z,0.50
2023-01-10T05:09:47.710Z,0.40
2023-01-10T05:12:15.478Z,0.30
2023-01-10T05:14:42.884Z,0.45
2023-01-10T05:17:10.607Z,0.50
2023-01-10T05:19:38.039Z,0.40
2023-01-10T05:22:05.439Z,0.35
2023-01-10T05:24:33.218Z,0.40
2023-01-10T05:27:00.601Z,0.50
2023-01-10T05:29:28.612Z,0.50
2023-01-10T05:31:56.497Z,0.43
2023-01-10T05:34:23.916Z,0.40
2023-01-10T05:36:51.307Z,0.37
2023-01-10T05:39:19.229Z,0.52
2023-01-10T05:41:46.667Z,0.35
2023-01-10T05:44:14.915Z,0.32
2023-01-10T05:46:42.736Z,0.40
2023-01-10T05:49:10.189Z,0.50
2023-01-10T05:51:37.685Z,0.30
2023-01-10T05:54:05.533Z,0.30
2023-01-10T05:56:32.936Z,0.62
2023-01-10T05:59:17.022Z,0.40
2023-01-10T06:01:48.247Z,0.40
2023-01-10T06:04:15.952Z,0.20
2023-01-10T06:06:43.355Z,0.30
2023-01-10T06:09:10.780Z,0.30
2023-01-10T06:11:39.029Z,0.40
2023-01-10T06:14:07.790Z,0.30
2023-01-10T06:16:35.188Z,0.20
2023-01-10T06:19:02.915Z,0.30
2023-01-10T06:21:30.450Z,0.65
2023-01-10T06:23:58.090Z,0.47
2023-01-10T06:26:25.751Z,0.40
2023-01-10T06:28:53.373Z,0.20
2023-01-10T06:31:22.586Z,0.50
2023-01-10T06:33:51.254Z,0.32
2023-01-10T06:36:19.090Z,0.20
2023-01-10T06:38:47.056Z,0.40
2023-01-10T06:41:14.809Z,0.15
2023-01-10T06:43:45.436Z,0.47
2023-01-10T06:46:17.315Z,0.20
2023-01-10T06:48:45.898Z,0.22
2023-01-10T06:51:14.484Z,0.62
2023-01-10T06:53:42.533Z,0.30
2023-01-10T06:56:10.684Z,0.30
2023-01-10T06:58:38.875Z,0.20
2023-01-10T07:01:08.004Z,0.30
2023-01-10T07:03:35.805Z,0.30
2023-01-10T07:06:03.700Z,0.50
2023-01-10T07:08:31.060Z,0.30
2023-01-10T07:10:59.688Z,0.50
2023-01-10T07:13:27.123Z,0.62
2023-01-10T07:16:04.719Z,0.52
2023-01-10T07:18:36.826Z,0.40
2023-01-10T07:21:04.553Z,0.25
2023-01-10T07:23:32.318Z,0.40
2023-01-10T07:26:04.953Z,0.40
2023-01-10T07:28:34.636Z,0.30
2023-01-10T07:31:04.052Z,0.40
2023-01-10T07:33:32.309Z,0.30
2023-01-10T07:36:01.174Z,0.50
2023-01-10T07:38:29.096Z,0.50
2023-01-10T07:40:56.709Z,0.60
2023-01-10T07:43:24.416Z,0.40
2023-01-10T07:45:52.003Z,0.47
2023-01-10T07:48:19.567Z,1.27
2023-01-10T07:50:47.314Z,0.30
2023-01-10T07:53:14.743Z,2.30
2023-01-10T07:55:43.563Z,2.62
2023-01-10T07:58:11.347Z,3.58
2023-01-10T08:00:38.755Z,2.08
2023-01-10T08:03:06.907Z,4.50
2023-01-10T08:05:34.560Z,3.22
2023-01-10T08:08:06.596Z,11.68
2023-01-10T08:10:35.591Z,2.95
2023-01-10T08:13:17.093Z,7.00
2023-01-10T08:15:47.492Z,1.30
2023-01-10T08:18:16.466Z,0.75
2023-01-10T08:20:43.894Z,4.90
2023-01-10T08:23:11.605Z,1.27
2023-01-10T08:25:39.712Z,5.65
2023-01-10T08:28:07.180Z,1.70
2023-01-10T08:30:35.106Z,3.42
2023-01-10T08:33:04.051Z,9.57
2023-01-10T08:35:32.653Z,3.62
2023-01-10T08:38:02.942Z,4.20
2023-01-10T08:40:30.341Z,2.62
2023-01-10T08:43:03.116Z,3.10
2023-01-10T08:45:31.108Z,7.55
2023-01-10T08:47:58.551Z,4.50
2023-01-10T08:50:26.375Z,8.75
2023-01-10T08:52:54.101Z,2.87
2023-01-10T08:55:21.729Z,4.00
2023-01-10T08:57:49.322Z,1.45
2023-01-10T09:00:17.613Z,1.98
2023-01-10T09:02:45.178Z,7.70
2023-01-10T09:05:26.283Z,9.15
2023-01-10T09:07:59.237Z,7.85
2023-01-10T09:10:27.245Z,6.15
2023-01-10T09:12:55.111Z,1.73
2023-01-10T09:15:24.454Z,1.87
2023-01-10T09:18:00.792Z,4.90
2023-01-10T09:20:29.476Z,3.55
2023-01-10T09:22:57.599Z,0.30
2023-01-10T09:25:25.483Z,3.58
2023-01-10T09:27:58.137Z,3.65
2023-01-10T09:30:26.250Z,3.15
2023-01-10T09:32:54.848Z,5.57
2023-01-10T09:35:23.276Z,1.62
2023-01-10T09:37:53.452Z,3.87
2023-01-10T09:40:46.001Z,0.60
2023-01-10T09:43:32.085Z,0.50
2023-01-10T09:46:16.343Z,0.68
2023-01-10T09:48:56.764Z,0.20
2023-01-10T09:51:37.845Z,0.55
2023-01-10T09:54:12.767Z,0.43
2023-01-10T09:56:40.938Z,0.20
2023-01-10T09:59:16.120Z,0.50
2023-01-10T10:01:44.729Z,0.20
2023-01-10T10:04:32.343Z,0.57
2023-01-10T10:07:00.139Z,0.47
2023-01-10T10:09:33.507Z,0.50
2023-01-10T10:12:19.826Z,0.40
2023-01-10T10:15:07.829Z,0.30
2023-01-10T10:17:50.604Z,0.43
2023-01-10T10:20:27.097Z,0.30
2023-01-10T10:23:13.316Z,0.40
2023-01-10T10:26:07.545Z,0.20
2023-01-10T10:28:54.513Z,0.30
2023-01-10T10:31:57.495Z,0.40
2023-01-10T10:34:31.666Z,0.40
2023-01-10T10:37:02.674Z,0.20
2023-01-10T10:39:51.871Z,0.20
2023-01-10T10:42:19.859Z,0.32
2023-01-10T10:44:58.962Z,0.50
2023-01-10T10:47:30.812Z,0.32
2023-01-10T10:50:16.062Z,0.45
2023-01-10T10:52:44.638Z,0.40
2023-01-10T10:55:23.479Z,0.35
2023-01-10T10:57:59.804Z,0.45
2023-01-10T11:00:28.350Z,0.40
2023-01-10T11:03:04.692Z,0.30
2023-01-10T11:05:40.775Z,0.40
2023-01-10T11:08:12.381Z,0.30
2023-01-10T11:10:41.853Z,0.35
2023-01-10T11:13:12.507Z,0.43
2023-01-10T11:15:46.565Z,0.40
2023-01-10T11:18:26.682Z,0.98
2023-01-10T11:21:00.842Z,0.40
2023-01-10T11:23:34.513Z,0.50
2023-01-10T11:26:02.935Z,0.68
2023-01-10T11:28:32.233Z,1.20
2023-01-10T11:31:00.541Z,0.60
2023-01-10T11:33:35.447Z,0.88
2023-01-10T11:36:09.262Z,0.57
2023-01-10T11:38:36.953Z,1.90
2023-01-10T11:41:25.592Z,0.80
2023-01-10T11:43:53.040Z,1.85
2023-01-10T11:46:23.036Z,1.90
2023-01-10T11:49:06.118Z,3.15
2023-01-10T11:51:39.973Z,1.37
2023-01-10T11:54:10.487Z,1.98
2023-01-10T11:56:40.054Z,2.80
2023-01-10T11:59:16.537Z,1.40
2023-01-10T12:02:00.601Z,2.87
2023-01-10T12:04:32.493Z,1.90
2023-01-10T12:07:04.756Z,2.47
2023-01-10T12:09:42.517Z,2.53
2023-01-10T12:12:15.982Z,1.48
2023-01-10T12:14:44.074Z,2.17
2023-01-10T12:17:37.856Z,1.27
2023-01-10T12:20:07.100Z,2.12
2023-01-10T12:22:38.761Z,3.08
2023-01-10T12:25:27.609Z,1.30
2023-01-10T12:27:56.879Z,1.33
2023-01-10T12:30:39.042Z,1.77
2023-01-10T12:33:16.849Z,1.77
2023-01-10T12:35:59.244Z,2.22
2023-01-10T12:39:15.703Z,1.80
2023-01-10T12:42:28.315Z,0.55
2023-01-10T12:45:14.510Z,0.60
2023-01-10T12:47:45.056Z,1.10
2023-01-10T12:50:34.141Z,1.27
2023-01-10T12:53:06.121Z,1.25
2023-01-10T12:55:43.021Z,1.40
2023-01-10T12:58:18.975Z,1.40
2023-01-10T13:00:49.109Z,2.10
2023-01-10T13:03:20.839Z,0.93
2023-01-10T13:05:50.701Z,0.50
2023-01-10T13:08:21.795Z,1.08
2023-01-10T13:10:51.511Z,1.10
2023-01-10T13:13:49.679Z,0.80
2023-01-10T13:16:24.096Z,0.73
2023-01-10T13:19:10.605Z,0.60
2023-01-10T13:21:39.670Z,0.80
2023-01-10T13:24:28.513Z,1.10
2023-01-10T13:27:02.270Z,0.80
2023-01-10T13:29:41.084Z,1.73
2023-01-10T13:32:23.997Z,2.37
2023-01-10T13:34:52.066Z,0.60
2023-01-10T13:37:25.678Z,1.55
2023-01-10T13:39:55.844Z,3.95
2023-01-10T13:42:52.387Z,1.92
2023-01-10T13:45:25.852Z,3.28
2023-01-10T13:47:56.963Z,1.45
2023-01-10T13:50:33.770Z,3.72
2023-01-10T13:53:01.456Z,1.65
2023-01-10T13:55:39.132Z,1.20
2023-01-10T13:58:09.480Z,1.77
2023-01-10T14:00:55.737Z,4.62
2023-01-10T14:03:43.771Z,3.55
2023-01-10T14:06:29.429Z,3.50
2023-01-10T14:09:03.531Z,2.53
2023-01-10T14:11:43.489Z,3.65
2023-01-10T14:14:27.728Z,2.05
2023-01-10T14:16:59.225Z,4.18
2023-01-10T14:19:32.993Z,2.53
2023-01-10T14:22:02.012Z,1.45
2023-01-10T14:24:38.918Z,1.42
2023-01-10T14:27:07.721Z,2.10
2023-01-10T14:29:35.448Z,1.55
2023-01-10T14:32:03.821Z,1.10
2023-01-10T14:34:36.860Z,1.10
2023-01-10T14:37:08.748Z,2.30
2023-01-10T14:39:36.513Z,1.20
2023-01-10T14:42:07.696Z,0.90
2023-01-10T14:45:09.004Z,1.73
2023-01-10T14:47:38.477Z,1.12
2023-01-10T14:50:07.813Z,2.00
2023-01-10T14:52:37.665Z,1.50
2023-01-10T14:55:08.014Z,2.22
2023-01-10T14:57:35.716Z,2.17
2023-01-10T15:00:17.403Z,1.42
2023-01-10T15:02:47.472Z,1.20
2023-01-10T15:05:26.863Z,0.80
2023-01-10T15:07:55.521Z,1.10
2023-01-10T15:10:31.910Z,0.80
2023-01-10T15:13:01.991Z,0.90
2023-01-10T15:15:37.993Z,1.10
2023-01-10T15:18:26.890Z,0.80
2023-01-10T15:20:54.665Z,1.65
2023-01-10T15:23:23.343Z,1.98
2023-01-10T15:25:59.555Z,1.25
2023-01-10T15:28:30.010Z,1.17
2023-01-10T15:30:59.517Z,1.67
2023-01-10T15:33:32.977Z,1.62
2023-01-10T15:36:08.483Z,1.52
2023-01-10T15:38:38.202Z,1.42
2023-01-10T15:41:06.840Z,1.45
2023-01-10T15:43:36.347Z,1.10
2023-01-10T15:46:06.006Z,1.40
2023-01-10T15:48:39.891Z,1.60
2023-01-10T15:51:22.365Z,1.05
2023-01-10T15:54:19.017Z,1.40
2023-01-10T15:56:53.205Z,0.80
2023-01-10T15:59:27.659Z,1.25
2023-01-10T16:04:43.654Z,1.80
2023-01-10T16:07:26.815Z,3.80
2023-01-10T16:09:58.967Z,5.62
2023-01-10T16:12:53.440Z,5.97
2023-01-10T16:15:26.350Z,2.70
2023-01-10T16:17:53.853Z,4.00
2023-01-10T16:20:34.514Z,4.50
2023-01-10T16:23:02.868Z,2.55
2023-01-10T16:25:39.237Z,3.70
2023-01-10T16:28:06.609Z,1.27
2023-01-10T16:30:35.237Z,1.45
2023-01-10T16:33:16.281Z,2.15
2023-01-10T16:35:45.457Z,0.98
2023-01-10T16:38:13.569Z,2.70
2023-01-10T16:40:42.511Z,2.30
2023-01-10T16:43:25.738Z,2.10
2023-01-10T16:46:00.171Z,1.95
2023-01-10T16:48:30.383Z,0.73
2023-01-10T16:51:10.972Z,1.80
2023-01-10T16:53:38.661Z,1.70
2023-01-10T16:56:07.122Z,1.95
2023-01-10T16:58:34.554Z,0.95
2023-01-10T17:01:02.312Z,0.98
2023-01-10T17:03:33.881Z,1.20
2023-01-10T17:06:01.608Z,1.45
2023-01-10T17:08:29.052Z,1.23
2023-01-10T17:11:01.466Z,1.12
2023-01-10T17:13:39.378Z,1.30
2023-01-10T17:16:07.210Z,1.62
2023-01-10T17:18:34.930Z,0.93
2023-01-10T17:21:02.383Z,0.75
2023-01-10T17:23:30.728Z,0.90
2023-01-10T17:26:00.033Z,1.73
2023-01-10T17:28:28.978Z,1.60
2023-01-10T17:30:57.318Z,0.98
2023-01-10T17:33:26.281Z,1.35
2023-01-10T17:35:55.866Z,0.90
2023-01-10T17:38:25.586Z,1.20
2023-01-10T17:40:53.953Z,2.35
2023-01-10T17:43:21.916Z,1.00
2023-01-10T17:45:50.989Z,4.22
2023-01-10T17:48:19.840Z,2.28
2023-01-10T17:50:48.495Z,1.12
2023-01-10T17:53:18.125Z,1.70
2023-01-10T17:55:47.277Z,1.70
2023-01-10T17:58:15.625Z,0.95
2023-01-10T18:00:43.147Z,1.23
2023-01-10T18:03:10.915Z,0.68
2023-01-10T18:05:39.821Z,2.15
2023-01-10T18:08:08.102Z,4.40
2023-01-10T18:10:35.884Z,1.25
2023-01-10T18:13:03.680Z,1.48
2023-01-10T18:15:31.248Z,0.90
2023-01-10T18:17:59.166Z,1.20
2023-01-10T18:20:27.751Z,0.98
2023-01-10T18:23:13.775Z,1.75
2023-01-10T18:25:41.841Z,1.17
2023-01-10T18:28:09.750Z,1.00
2023-01-10T18:30:40.448Z,2.60
2023-01-10T18:33:08.194Z,0.85
2023-01-10T18:35:35.724Z,1.12
2023-01-10T18:38:03.502Z,1.00
2023-01-10T18:40:31.468Z,1.10
2023-01-10T18:42:59.516Z,1.10
2023-01-10T18:45:27.569Z,1.60
2023-01-10T18:47:57.854Z,2.53
2023-01-10T18:50:26.087Z,2.35
2023-01-10T18:52:54.873Z,2.37
2023-01-10T18:55:23.028Z,0.95
2023-01-10T18:57:51.271Z,1.25
2023-01-10T19:00:19.232Z,0.68
2023-01-10T19:02:47.455Z,1.30
2023-01-10T19:05:15.402Z,1.35
2023-01-10T19:07:42.906Z,0.95
2023-01-10T19:10:11.098Z,1.10
2023-01-10T19:12:42.446Z,0.93
2023-01-10T19:15:11.334Z,0.70
2023-01-10T19:17:39.172Z,1.08
2023-01-10T19:20:07.398Z,1.12
2023-01-10T19:22:35.129Z,1.80
2023-01-10T19:25:05.499Z,1.05
2023-01-10T19:27:41.687Z,1.20
2023-01-10T19:30:11.209Z,1.05
2023-01-10T19:32:41.576Z,1.00
2023-01-10T19:35:10.504Z,1.30
2023-01-10T19:37:39.650Z,1.48
2023-01-10T19:40:08.205Z,1.30
2023-01-10T19:42:37.441Z,1.20
2023-01-10T19:45:06.089Z,1.37
2023-01-10T19:47:33.725Z,1.58
2023-01-10T19:50:01.697Z,1.67
2023-01-10T19:52:29.263Z,1.40
2023-01-10T19:54:56.799Z,2.03
2023-01-10T19:57:24.880Z,1.70
2023-01-10T19:59:55.397Z,2.83
2023-01-10T20:02:24.004Z,3.28
2023-01-10T20:04:54.429Z,3.22
2023-01-10T20:07:22.411Z,2.87
2023-01-10T20:09:50.118Z,2.20
2023-01-10T20:12:18.356Z,2.70
2023-01-10T20:14:46.273Z,3.45
2023-01-10T20:17:14.299Z,3.47
2023-01-10T20:19:42.291Z,2.40
2023-01-10T20:22:10.574Z,2.97
2023-01-10T20:24:38.423Z,2.80
2023-01-10T20:27:09.436Z,2.60
2023-01-10T20:29:39.003Z,2.25
2023-01-10T20:32:07.726Z,2.42
2023-01-10T20:34:35.960Z,2.62
2023-01-10T20:37:03.634Z,3.25
2023-01-10T20:39:32.950Z,4.65
2023-01-10T20:42:00.552Z,3.62
2023-01-10T20:44:28.749Z,4.85
2023-01-10T20:46:57.933Z,3.12
2023-01-10T20:49:25.443Z,3.80
2023-01-10T20:51:54.366Z,3.47
2023-01-10T20:54:22.756Z,2.65
2023-01-10T20:56:50.230Z,3.70
2023-01-10T20:59:18.578Z,2.87
2023-01-10T21:01:46.799Z,4.22
2023-01-10T21:04:14.357Z,2.72
2023-01-10T21:06:42.215Z,10.73
2023-01-10T21:09:10.236Z,3.87
2023-01-10T21:11:52.126Z,3.10
2023-01-10T21:14:25.909Z,2.72
2023-01-10T21:16:53.419Z,2.75
2023-01-10T21:19:21.049Z,1.92
2023-01-10T21:21:48.957Z,2.85
2023-01-10T21:24:16.415Z,3.10
2023-01-10T21:26:43.840Z,2.78
2023-01-10T21:29:13.088Z,2.20
2023-01-10T21:31:40.874Z,2.28
2023-01-10T21:34:08.509Z,2.80
2023-01-10T21:36:36.228Z,2.15
2023-01-10T21:39:03.856Z,2.90
2023-01-10T21:41:49.578Z,3.62
2023-01-10T21:44:17.291Z,2.47
2023-01-10T21:46:46.791Z,3.58
2023-01-10T21:49:15.164Z,3.60
2023-01-10T21:51:43.670Z,3.62
2023-01-10T21:54:11.450Z,3.95
2023-01-10T21:56:38.965Z,3.87
2023-01-10T21:59:06.698Z,4.22
2023-01-10T22:01:34.119Z,4.40
2023-01-10T22:04:01.983Z,3.50
2023-01-10T22:06:29.669Z,4.10
2023-01-10T22:08:57.088Z,3.42
2023-01-10T22:11:24.827Z,3.67
2023-01-10T22:13:54.442Z,3.55
2023-01-10T22:16:21.929Z,3.87
2023-01-10T22:18:50.288Z,4.10
2023-01-10T22:21:19.710Z,3.30
2023-01-10T22:23:47.298Z,3.85
2023-01-10T22:26:16.218Z,3.70
2023-01-10T22:28:43.745Z,3.37
2023-01-10T22:31:11.315Z,3.40
2023-01-10T22:33:39.030Z,3.08
2023-01-10T22:36:08.635Z,3.72
2023-01-10T22:38:36.093Z,2.75
2023-01-10T22:41:11.090Z,3.37
2023-01-10T22:43:38.779Z,3.53
2023-01-10T22:46:07.351Z,3.25
2023-01-10T22:48:35.642Z,3.17
2023-01-10T22:51:05.277Z,3.20
2023-01-10T22:53:33.495Z,2.95
2023-01-10T22:56:06.000Z,3.40
2023-01-10T22:58:33.805Z,3.72
2023-01-10T23:01:03.722Z,3.85
2023-01-10T23:03:31.114Z,3.75
2023-01-10T23:05:59.100Z,4.37
2023-01-10T23:08:27.460Z,3.53
2023-01-10T23:10:54.942Z,3.70
2023-01-10T23:13:23.761Z,3.70
2023-01-10T23:15:58.969Z,3.15
2023-01-10T23:18:27.478Z,4.10
2023-01-10T23:20:55.386Z,4.28
2023-01-10T23:23:24.129Z,5.28
2023-01-10T23:26:01.592Z,4.85
2023-01-10T23:28:39.878Z,4.28
2023-01-10T23:31:07.983Z,4.10
2023-01-10T23:33:35.842Z,4.32
2023-01-10T23:36:04.020Z,3.55
2023-01-10T23:38:32.769Z,4.87
2023-01-10T23:41:00.143Z,3.92
2023-01-10T23:43:27.496Z,3.80
2023-01-10T23:45:55.198Z,4.72
2023-01-10T23:48:23.152Z,4.78
2023-01-10T23:50:51.277Z,3.25
2023-01-10T23:53:19.460Z,3.87
2023-01-10T23:55:47.001Z,4.50
2023-01-10T23:58:15.634Z,3.50
